Terminal Aerodrome Forecast
Issued by NWS

Home | Current Version | Previous Version | Text Only | Print | Product List | Glossary On
Versions: 1 2 3 4 5 6 7 8 9 10 11 12 13 14 15 16 17 18 19 20 21 22 23 24 25 26 27 28 29 30 31 32 33
000
FTPA31 PHFO 050500
TAFLNY
TAF
PHNY 050538Z 0506/0606 03015KT P6SM VCSH SCT015 SCT035 BKN150
      TEMPO 0506/0508 03015G25KT -RA BKN015
     FM051000 03010KT P6SM VCSH SCT015 SCT035 SCT150
      TEMPO 0512/0516 BKN005
     FM051800 03015G25KT P6SM SCT015 SCT035
      AMD NOT SKED=

USA.gov is the U.S. government's official web portal to all federal, state and local government web resources and services.